Time;durP1;ratioP1;P1;durP2;ratioP2;P2;SDS_P1;SDS_P2;PMS_P1;PMS_P2;Temp;Humidity;BMP_temperature;BMP_pressure;BME280_temperature;BME280_humidity;BME280_pressure;Samples;Min_cycle;Max_cycle;Signal;HPM_P1;HPM_P2
2021/12/17 00:00:56;;;;;;;15.07;12.07;;;3.50;90.60;;;;;;5096280;28;20213;-73
2021/12/17 00:03:34;;;;;;;11.95;8.45;;;3.50;90.60;;;;;;5096109;28;20183;-74
2021/12/17 00:08:52;;;;;;;9.93;6.57;;;3.50;90.40;;;;;;5090479;28;20559;-73
2021/12/17 00:11:21;;;;;;;9.85;6.63;;;3.40;90.50;;;;;;5096343;28;20198;-74
2021/12/17 00:13:49;;;;;;;14.63;7.93;;;3.50;90.80;;;;;;5095927;28;20254;-73
2021/12/17 00:16:20;;;;;;;26.30;9.38;;;3.50;90.30;;;;;;5096092;28;20999;-73
2021/12/17 00:19:00;;;;;;;11.07;7.90;;;3.60;90.60;;;;;;5095700;28;20560;-73
2021/12/17 00:49:15;;;;;;;15.15;10.55;;;3.80;91.00;;;;;;5065577;28;20242;-73
2021/12/17 00:54:35;;;;;;;19.10;10.27;;;3.90;91.10;;;;;;5091924;28;20189;-73
2021/12/17 00:57:09;;;;;;;16.30;10.55;;;3.90;91.30;;;;;;5095137;28;20189;-73
2021/12/17 00:59:37;;;;;;;15.18;10.15;;;3.90;91.30;;;;;;5094851;28;20182;-72
2021/12/17 01:02:10;;;;;;;20.42;10.70;;;3.90;91.30;;;;;;5095147;28;20709;-72
2021/12/17 01:04:40;;;;;;;19.70;11.70;;;4.00;91.30;;;;;;5094136;28;20186;-73
2021/12/17 01:07:08;;;;;;;18.52;9.95;;;4.00;91.20;;;;;;5095114;28;20191;-73
2021/12/17 01:09:36;;;;;;;19.02;10.25;;;4.00;91.10;;;;;;5094699;28;20663;-73
2021/12/17 01:12:10;;;;;;;15.23;10.00;;;4.00;91.00;;;;;;5094986;28;20193;-74
2021/12/17 01:14:37;;;;;;;18.90;10.00;;;4.00;90.70;;;;;;5094561;28;20193;-74
2021/12/17 01:17:06;;;;;;;10.60;7.60;;;4.00;90.30;;;;;;5094927;28;20197;-73
2021/12/17 01:20:07;;;;;;;15.13;8.85;;;4.00;90.40;;;;;;5094582;28;20235;-73
2021/12/17 01:25:15;;;;;;;13.05;7.78;;;3.90;90.10;;;;;;5091047;28;20190;-73
2021/12/17 01:35:58;;;;;;;10.48;7.35;;;3.90;90.40;;;;;;5076188;28;20700;-73
2021/12/17 01:43:59;;;;;;;14.23;8.15;;;3.90;90.50;;;;;;5094445;28;20247;-73
2021/12/17 01:46:30;;;;;;;12.45;7.05;;;3.90;90.30;;;;;;5093868;28;20189;-72
2021/12/17 01:49:06;;;;;;;10.50;6.75;;;3.90;90.40;;;;;;5094582;28;20189;-73
2021/12/17 02:00:04;;;;;;;15.63;8.57;;;3.90;89.70;;;;;;5094044;28;20247;-73
2021/12/17 02:02:37;;;;;;;11.60;7.88;;;3.90;90.20;;;;;;5094158;28;20213;-73
2021/12/17 02:05:05;;;;;;;14.07;8.40;;;3.90;90.40;;;;;;5094010;28;20247;-73
2021/12/17 02:07:32;;;;;;;15.07;9.20;;;3.90;90.00;;;;;;5093570;28;20269;-72
2021/12/17 02:10:38;;;;;;;11.15;7.10;;;3.80;90.20;;;;;;5094301;28;20240;-72
2021/12/17 02:19:27;;;;;;;12.77;8.40;;;3.80;90.20;;;;;;5093696;28;20635;-72
2021/12/17 02:30:08;;;;;;;14.77;7.85;;;3.70;90.60;;;;;;5093350;28;20201;-73
2021/12/17 02:32:38;;;;;;;13.27;8.43;;;3.70;90.80;;;;;;5093797;28;20586;-73
2021/12/17 02:37:52;;;;;;;15.13;8.63;;;3.70;90.90;;;;;;5082763;28;20197;-73
2021/12/17 02:45:46;;;;;;;13.90;8.55;;;3.80;91.40;;;;;;5093021;28;20197;-73
2021/12/17 02:48:15;;;;;;;11.05;7.63;;;3.80;90.90;;;;;;5093115;28;20192;-72
2021/12/17 02:50:45;;;;;;;10.90;8.50;;;3.90;90.50;;;;;;5092710;28;20246;-73
2021/12/17 02:53:15;;;;;;;9.90;6.85;;;3.90;90.40;;;;;;5093071;28;20280;-73
2021/12/17 02:55:45;;;;;;;11.15;8.10;;;3.90;90.20;;;;;;5092772;28;20196;-73
2021/12/17 02:58:12;;;;;;;10.02;6.85;;;3.80;90.20;;;;;;5092889;28;20270;-73
2021/12/17 03:00:42;;;;;;;11.30;7.20;;;3.80;90.20;;;;;;5092496;28;20519;-72
2021/12/17 03:03:10;;;;;;;11.45;7.18;;;3.80;90.40;;;;;;5092535;28;20189;-74
2021/12/17 03:05:40;;;;;;;13.18;7.25;;;3.70;90.50;;;;;;5092600;28;20200;-73
2021/12/17 03:08:12;;;;;;;9.68;7.38;;;3.70;90.50;;;;;;5072625;28;20190;-73
2021/12/17 03:10:41;;;;;;;9.82;7.03;;;3.80;90.60;;;;;;5072572;28;20194;-73
2021/12/17 03:13:09;;;;;;;11.15;7.85;;;3.80;90.60;;;;;;5092347;28;20644;-73
2021/12/17 03:15:41;;;;;;;10.95;8.02;;;3.70;90.40;;;;;;5092715;28;20193;-72
2021/12/17 03:23:44;;;;;;;10.18;6.82;;;3.70;90.20;;;;;;5092772;28;20314;-75
2021/12/17 03:26:14;;;;;;;10.57;7.65;;;3.70;90.20;;;;;;5091909;28;20189;-75
2021/12/17 03:28:43;;;;;;;10.00;8.18;;;3.60;90.00;;;;;;5092708;28;20173;-75
2021/12/17 03:31:11;;;;;;;10.15;7.20;;;3.50;90.00;;;;;;5092318;28;20190;-75
2021/12/17 03:33:42;;;;;;;10.55;7.13;;;3.50;89.90;;;;;;5092613;28;20186;-73
2021/12/17 03:36:11;;;;;;;9.77;6.80;;;3.50;89.70;;;;;;5091712;28;20221;-73
2021/12/17 03:38:40;;;;;;;11.20;6.25;;;3.40;89.60;;;;;;5092518;28;20193;-73
2021/12/17 03:41:17;;;;;;;9.07;6.22;;;3.30;89.50;;;;;;5092022;28;20217;-73
2021/12/17 03:43:47;;;;;;;10.25;6.80;;;3.20;89.40;;;;;;5092428;28;20193;-73
2021/12/17 03:46:15;;;;;;;11.10;7.45;;;3.10;89.40;;;;;;5092104;28;20618;-74
2021/12/17 03:48:42;;;;;;;11.15;7.30;;;3.00;89.40;;;;;;5092398;28;20193;-72
2021/12/17 03:51:14;;;;;;;12.98;7.07;;;2.90;89.60;;;;;;5092309;28;20193;-73
2021/12/17 03:53:42;;;;;;;11.07;6.88;;;2.90;89.90;;;;;;5092393;28;20201;-73
2021/12/17 03:56:10;;;;;;;11.30;6.82;;;2.80;90.00;;;;;;5092434;28;20189;-72
2021/12/17 03:58:37;;;;;;;11.20;7.18;;;2.80;90.00;;;;;;5091697;28;20255;-73
2021/12/17 04:01:06;;;;;;;10.93;7.28;;;2.80;90.40;;;;;;5092203;28;20213;-73
2021/12/17 04:03:33;;;;;;;10.98;5.93;;;2.70;90.00;;;;;;5092117;28;20189;-72
2021/12/17 04:06:01;;;;;;;8.88;6.47;;;2.60;90.10;;;;;;5092197;28;20204;-73
2021/12/17 04:08:29;;;;;;;8.68;6.47;;;2.60;90.20;;;;;;5092044;28;20648;-73
2021/12/17 04:11:03;;;;;;;12.15;7.05;;;2.60;90.20;;;;;;5092162;28;20189;-74
2021/12/17 04:13:33;;;;;;;10.55;6.75;;;2.60;90.20;;;;;;5092351;28;20280;-72
2021/12/17 04:16:04;;;;;;;10.40;7.13;;;2.50;90.30;;;;;;5092193;28;20269;-72
2021/12/17 04:18:34;;;;;;;12.73;7.88;;;2.50;90.20;;;;;;5092360;28;20221;-72
2021/12/17 04:21:03;;;;;;;10.55;7.57;;;2.40;90.10;;;;;;5091861;28;20206;-73
2021/12/17 04:23:32;;;;;;;11.00;6.78;;;2.40;90.10;;;;;;5092179;28;20221;-73
2021/12/17 04:26:00;;;;;;;12.05;7.05;;;2.40;90.10;;;;;;5091891;28;20227;-71
2021/12/17 04:28:28;;;;;;;10.88;6.10;;;2.40;89.90;;;;;;5092178;28;20189;-72
2021/12/17 04:30:55;;;;;;;8.88;6.28;;;2.30;89.90;;;;;;5091966;28;20190;-72
2021/12/17 04:33:23;;;;;;;9.43;6.63;;;2.30;90.00;;;;;;5092277;28;20194;-73
2021/12/17 04:35:51;;;;;;;9.40;6.95;;;2.30;90.00;;;;;;5091363;28;20695;-73
2021/12/17 04:38:20;;;;;;;8.55;6.00;;;2.30;90.10;;;;;;5093175;28;20644;-72
2021/12/17 04:40:50;;;;;;;12.23;7.25;;;2.20;90.10;;;;;;5095229;28;20182;-73
2021/12/17 04:43:23;;;;;;;7.80;5.97;;;2.20;90.20;;;;;;5095683;28;20217;-73
2021/12/17 04:45:59;;;;;;;7.95;5.15;;;2.20;90.30;;;;;;5095721;28;20200;-73
2021/12/17 04:59:26;;;;;;;9.45;7.15;;;2.00;90.20;;;;;;5095747;28;20212;-73
2021/12/17 05:01:54;;;;;;;12.30;7.30;;;1.90;90.50;;;;;;5094999;28;20224;-73
2021/12/17 05:04:21;;;;;;;11.48;7.80;;;1.90;90.70;;;;;;5095472;28;20377;-74
2021/12/17 05:06:49;;;;;;;14.30;7.07;;;1.90;90.80;;;;;;5095143;28;20590;-73
2021/12/17 05:09:27;;;;;;;9.30;6.03;;;1.90;91.00;;;;;;5094781;28;20189;-73
2021/12/17 05:20:24;;;;;;;10.48;6.65;;;1.70;91.10;;;;;;5094857;28;20222;-75
2021/12/17 05:22:57;;;;;;;13.23;7.50;;;1.70;91.10;;;;;;5095067;28;20225;-75
2021/12/17 05:25:26;;;;;;;11.70;8.45;;;1.70;91.00;;;;;;5095094;28;20186;-75
2021/12/17 05:28:00;;;;;;;9.02;6.88;;;1.60;90.60;;;;;;5094723;28;20281;-75
2021/12/17 05:30:28;;;;;;;8.77;6.68;;;1.60;90.40;;;;;;5095216;28;20188;-72
2021/12/17 05:32:56;;;;;;;9.32;6.05;;;1.60;90.50;;;;;;5094380;28;20540;-72
2021/12/17 05:35:23;;;;;;;8.55;6.38;;;1.60;90.70;;;;;;5094509;28;20232;-73
2021/12/17 05:37:52;;;;;;;11.48;7.55;;;1.60;90.90;;;;;;5094647;28;20264;-72
2021/12/17 05:40:19;;;;;;;7.88;6.25;;;1.60;91.00;;;;;;5094626;28;20193;-72
2021/12/17 05:42:48;;;;;;;11.88;8.35;;;1.50;90.80;;;;;;5094044;28;20213;-72
2021/12/17 05:45:32;;;;;;;11.60;8.60;;;1.40;90.90;;;;;;5094730;28;20204;-73
2021/12/17 05:48:00;;;;;;;9.80;6.82;;;1.40;91.00;;;;;;5094574;28;20185;-72
2021/12/17 05:50:28;;;;;;;12.75;8.45;;;1.30;90.70;;;;;;5094196;28;20275;-73
2021/12/17 05:52:56;;;;;;;13.27;8.40;;;1.30;90.30;;;;;;5093929;28;20193;-73
2021/12/17 05:55:24;;;;;;;12.10;7.68;;;1.20;90.50;;;;;;5094717;28;20200;-73
2021/12/17 05:57:52;;;;;;;10.85;7.00;;;1.20;90.70;;;;;;5094217;28;20189;-72
2021/12/17 06:00:20;;;;;;;12.10;7.25;;;1.10;91.00;;;;;;5094522;28;20564;-72
2021/12/17 06:02:48;;;;;;;9.98;6.35;;;1.10;91.10;;;;;;5093448;28;20213;-72
2021/12/17 06:05:15;;;;;;;9.20;6.90;;;1.10;91.10;;;;;;5093911;28;20193;-73
2021/12/17 06:07:42;;;;;;;12.10;7.70;;;1.10;91.00;;;;;;5094154;28;20674;-72
2021/12/17 06:10:12;;;;;;;9.77;6.30;;;1.00;91.20;;;;;;5093779;28;20548;-72
2021/12/17 06:12:39;;;;;;;9.23;6.60;;;1.00;91.10;;;;;;5094075;28;20208;-73
2021/12/17 06:15:09;;;;;;;11.15;7.20;;;1.00;91.20;;;;;;5090745;28;20544;-72
2021/12/17 06:17:36;;;;;;;10.70;7.47;;;1.00;90.80;;;;;;5090990;28;20199;-72
2021/12/17 06:20:04;;;;;;;8.25;6.00;;;1.00;91.00;;;;;;5091419;28;20285;-73
2021/12/17 06:22:32;;;;;;;11.63;6.38;;;1.10;91.00;;;;;;5090923;28;20254;-73
2021/12/17 06:24:59;;;;;;;10.35;6.63;;;1.00;90.60;;;;;;5090748;28;20196;-73
2021/12/17 06:27:28;;;;;;;11.57;6.70;;;1.00;90.50;;;;;;5091167;28;20586;-73
2021/12/17 06:29:57;;;;;;;10.13;6.85;;;1.00;90.50;;;;;;5089820;28;20556;-73
2021/12/17 06:32:25;;;;;;;11.00;7.28;;;1.00;90.40;;;;;;5090625;28;20190;-72
2021/12/17 06:34:52;;;;;;;11.07;7.95;;;1.00;90.60;;;;;;5089185;28;20221;-73
2021/12/17 06:37:20;;;;;;;9.18;6.68;;;1.10;90.80;;;;;;5090732;28;20197;-73
2021/12/17 06:39:49;;;;;;;9.02;6.05;;;1.10;90.50;;;;;;5090506;28;20193;-73
2021/12/17 06:42:17;;;;;;;8.25;6.10;;;1.10;90.30;;;;;;5090074;28;20228;-73
2021/12/17 06:44:47;;;;;;;9.70;7.63;;;1.10;90.20;;;;;;5076230;28;20283;-75
2021/12/17 06:47:26;;;;;;;13.68;8.43;;;1.10;89.00;;;;;;5072700;28;20202;-75
2021/12/17 06:49:59;;;;;;;11.00;7.78;;;1.00;88.50;;;;;;5087843;28;20192;-75
2021/12/17 06:55:30;;;;;;;8.90;6.00;;;0.90;88.10;;;;;;5090475;28;20212;-73
2021/12/17 07:01:01;;;;;;;6.75;5.40;;;0.90;88.90;;;;;;5055422;28;20197;-72
2021/12/17 07:06:24;;;;;;;10.43;6.40;;;0.90;89.20;;;;;;5090201;28;20574;-73
2021/12/17 07:17:07;;;;;;;11.88;6.65;;;0.90;88.50;;;;;;5089929;28;20276;-72
2021/12/17 07:17:32;;;;;;;7.45;5.97;;;0.90;88.50;;;;;;5089067;28;20200;-73
2021/12/17 07:23:06;;;;;;;9.07;7.30;;;1.00;89.80;;;;;;5090616;28;20225;-74
2021/12/17 07:28:51;;;;;;;7.53;5.10;;;1.50;91.30;;;;;;5090451;28;20196;-72
2021/12/17 07:34:07;;;;;;;12.75;7.07;;;2.20;88.60;;;;;;5088674;28;20219;-73
2021/12/17 07:36:41;;;;;;;12.25;8.25;;;2.40;87.90;;;;;;5081074;28;20699;-74
2021/12/17 07:39:07;;;;;;;8.57;6.75;;;2.60;85.70;;;;;;5072461;28;20201;-72
2021/12/17 07:41:35;;;;;;;9.05;6.95;;;2.70;83.90;;;;;;5072499;28;20194;-73
2021/12/17 07:44:02;;;;;;;9.15;6.40;;;2.70;83.90;;;;;;5072331;28;20752;-72
2021/12/17 07:46:29;;;;;;;8.90;6.45;;;2.80;83.30;;;;;;5076510;28;20192;-72
2021/12/17 07:48:56;;;;;;;10.70;8.25;;;2.80;83.10;;;;;;5072172;28;20206;-72
2021/12/17 07:51:25;;;;;;;13.18;8.05;;;2.80;83.60;;;;;;5072190;28;20561;-73
2021/12/17 07:53:54;;;;;;;8.57;6.40;;;2.80;82.90;;;;;;5072493;28;20194;-73
2021/12/17 07:56:24;;;;;;;9.05;6.43;;;2.90;82.80;;;;;;5076874;28;20186;-72
2021/12/17 07:58:51;;;;;;;9.07;6.68;;;2.90;82.20;;;;;;5091676;28;20656;-73
2021/12/17 08:01:18;;;;;;;8.63;6.20;;;3.00;82.40;;;;;;5092789;28;20599;-73
2021/12/17 08:03:45;;;;;;;13.40;8.30;;;2.90;82.20;;;;;;5092564;28;20209;-72
2021/12/17 08:06:12;;;;;;;20.80;11.55;;;2.90;83.00;;;;;;5092940;28;20586;-72
2021/12/17 08:08:41;;;;;;;24.00;15.50;;;2.90;83.30;;;;;;5092715;28;20273;-73
2021/12/17 08:11:08;;;;;;;29.55;13.45;;;2.90;83.30;;;;;;5092682;28;20277;-73
2021/12/17 08:13:36;;;;;;;60.72;15.65;;;3.00;83.50;;;;;;5095984;28;20608;-72
2021/12/17 08:16:18;;;;;;;19.58;11.35;;;3.00;82.80;;;;;;5096409;28;20613;-73
2021/12/17 08:18:54;;;;;;;22.63;14.68;;;3.00;83.90;;;;;;5096521;28;20204;-72
2021/12/17 08:27:08;;;;;;;16.27;11.15;;;3.50;84.10;;;;;;5096982;28;20192;-72
2021/12/17 08:30:07;;;;;;;19.35;10.20;;;3.60;82.60;;;;;;5096695;28;20276;-72
2021/12/17 08:32:34;;;;;;;17.98;9.90;;;3.80;82.10;;;;;;5096419;28;20643;-73
2021/12/17 08:35:01;;;;;;;21.35;11.27;;;3.90;81.20;;;;;;5095975;28;20304;-73
2021/12/17 08:37:29;;;;;;;16.10;10.27;;;4.10;80.60;;;;;;5096565;28;20196;-72
2021/12/17 08:39:57;;;;;;;15.35;9.90;;;4.20;79.40;;;;;;5096796;28;20189;-72
2021/12/17 08:42:24;;;;;;;13.45;10.40;;;4.30;78.60;;;;;;5096275;28;20308;-72
2021/12/17 08:44:51;;;;;;;12.75;9.25;;;4.50;77.10;;;;;;5096333;28;20228;-72
2021/12/17 08:47:18;;;;;;;10.80;7.65;;;4.60;77.90;;;;;;5096231;28;20284;-73
2021/12/17 08:49:45;;;;;;;13.35;11.55;;;4.90;78.60;;;;;;5096152;28;20229;-73
2021/12/17 08:52:13;;;;;;;11.88;10.25;;;5.20;78.40;;;;;;5095620;28;20193;-73
2021/12/17 08:54:40;;;;;;;12.70;10.20;;;5.50;76.70;;;;;;5096055;28;20685;-82
2021/12/17 08:57:09;;;;;;;9.80;8.20;;;5.70;75.30;;;;;;5095541;28;20281;-73
2021/12/17 08:59:36;;;;;;;10.82;8.05;;;6.00;74.30;;;;;;5096027;28;20259;-71
2021/12/17 09:02:04;;;;;;;8.73;6.60;;;6.20;73.90;;;;;;5096228;28;20284;-72
2021/12/17 09:04:31;;;;;;;10.52;7.65;;;6.40;72.60;;;;;;5095585;28;20276;-72
2021/12/17 09:06:58;;;;;;;12.05;7.82;;;6.50;73.10;;;;;;5095935;28;20660;-72
2021/12/17 09:09:27;;;;;;;10.10;7.78;;;6.80;73.20;;;;;;5095427;28;20280;-72
2021/12/17 09:11:54;;;;;;;8.05;6.75;;;7.20;72.00;;;;;;5095935;28;20239;-72
2021/12/17 09:14:22;;;;;;;8.27;6.47;;;7.40;69.80;;;;;;5095903;28;20280;-72
2021/12/17 09:16:51;;;;;;;6.88;5.95;;;7.50;68.00;;;;;;5095842;28;20221;-72
2021/12/17 09:19:18;;;;;;;7.95;6.15;;;7.60;67.70;;;;;;5095389;28;20193;-73
2021/12/17 09:21:46;;;;;;;8.35;6.60;;;7.90;68.70;;;;;;5095590;28;20284;-73
2021/12/17 09:24:13;;;;;;;8.40;6.03;;;8.20;67.30;;;;;;5094951;28;20221;-73
2021/12/17 09:26:40;;;;;;;9.98;6.70;;;8.40;68.10;;;;;;5095253;28;20281;-72
2021/12/17 09:29:07;;;;;;;7.80;5.97;;;8.70;68.20;;;;;;5095223;28;20288;-72
2021/12/17 09:31:36;;;;;;;9.68;6.28;;;8.90;64.70;;;;;;5095106;28;20284;-73
2021/12/17 09:34:04;;;;;;;6.68;5.95;;;9.10;63.20;;;;;;5095132;28;20217;-73
2021/12/17 09:36:34;;;;;;;7.45;6.15;;;9.30;63.80;;;;;;5095230;28;20197;-73
2021/12/17 09:39:01;;;;;;;6.50;5.07;;;9.50;62.80;;;;;;5095243;28;20185;-72
2021/12/17 09:41:28;;;;;;;6.78;5.68;;;9.80;60.40;;;;;;5095252;28;20217;-72
2021/12/17 09:43:55;;;;;;;6.32;5.30;;;10.00;58.80;;;;;;5095243;28;20217;-72
2021/12/17 09:46:23;;;;;;;9.27;6.00;;;10.20;57.80;;;;;;5095294;28;20204;-73
2021/12/17 09:48:52;;;;;;;10.88;6.20;;;10.40;57.30;;;;;;5094928;28;20270;-73
2021/12/17 09:51:20;;;;;;;8.50;5.85;;;10.60;57.00;;;;;;5094841;28;20660;-73
2021/12/17 09:53:48;;;;;;;6.95;6.32;;;10.80;56.70;;;;;;5094945;28;20193;-73
2021/12/17 09:56:16;;;;;;;8.05;5.80;;;11.00;56.50;;;;;;5095260;28;20197;-73
2021/12/17 09:58:43;;;;;;;8.15;7.20;;;11.20;56.50;;;;;;5095021;28;20190;-73
2021/12/17 10:01:10;;;;;;;8.18;6.05;;;11.40;55.30;;;;;;5094580;28;20189;-74
2021/12/17 10:03:37;;;;;;;6.60;5.47;;;11.50;54.60;;;;;;5094725;28;20253;-73
2021/12/17 10:06:06;;;;;;;7.70;5.75;;;11.60;54.10;;;;;;5094724;28;20193;-73
2021/12/17 10:08:34;;;;;;;5.60;4.97;;;11.80;54.90;;;;;;5094109;28;20220;-73
2021/12/17 10:11:04;;;;;;;6.15;5.25;;;11.90;53.80;;;;;;5094552;28;20192;-73
2021/12/17 10:13:33;;;;;;;6.97;5.00;;;12.10;53.00;;;;;;5094583;28;20189;-73
2021/12/17 10:16:02;;;;;;;6.15;5.00;;;12.30;52.20;;;;;;5094305;28;20193;-73
2021/12/17 10:18:34;;;;;;;7.47;5.75;;;12.50;51.60;;;;;;5094427;28;20284;-72
2021/12/17 10:21:03;;;;;;;7.22;6.03;;;12.70;53.10;;;;;;5094196;28;20280;-73
2021/12/17 10:23:33;;;;;;;6.47;5.40;;;12.90;52.20;;;;;;5094431;28;20228;-73
2021/12/17 10:26:01;;;;;;;8.10;6.00;;;13.20;52.20;;;;;;5094319;28;20527;-73
2021/12/17 10:28:28;;;;;;;6.03;5.37;;;13.50;50.40;;;;;;5094344;28;20296;-73
2021/12/17 10:30:56;;;;;;;6.90;5.83;;;13.70;51.20;;;;;;5093728;28;20522;-73
2021/12/17 10:33:27;;;;;;;6.13;5.37;;;13.80;49.30;;;;;;5094199;28;20439;-74
2021/12/17 10:35:57;;;;;;;6.23;5.53;;;14.00;49.10;;;;;;5093144;28;20864;-73
2021/12/17 10:38:26;;;;;;;7.47;6.20;;;14.20;49.10;;;;;;5094403;28;20860;-73
2021/12/17 10:41:01;;;;;;;8.57;5.33;;;14.30;48.50;;;;;;5094213;28;20482;-73
2021/12/17 10:43:34;;;;;;;5.20;4.20;;;14.40;47.20;;;;;;5093858;28;20871;-73
2021/12/17 10:46:06;;;;;;;5.20;4.17;;;14.60;47.30;;;;;;5094391;28;20785;-72
2021/12/17 10:48:36;;;;;;;5.90;4.40;;;14.80;46.00;;;;;;5093713;28;20438;-73
2021/12/17 10:51:18;;;;;;;6.70;5.20;;;15.00;43.60;;;;;;5093700;28;20901;-73
2021/12/17 10:53:50;;;;;;;6.10;5.00;;;15.00;44.70;;;;;;5093682;28;20522;-73
2021/12/17 10:56:21;;;;;;;6.43;5.40;;;15.00;44.20;;;;;;5093859;28;20431;-73
2021/12/17 10:58:59;;;;;;;7.27;5.53;;;15.10;43.70;;;;;;5093780;28;20492;-73
2021/12/17 11:01:35;;;;;;;7.63;5.37;;;15.10;43.60;;;;;;5093516;28;20787;-73
2021/12/17 11:04:19;;;;;;;6.30;5.70;;;15.10;44.50;;;;;;5093391;28;20489;-73
2021/12/17 11:06:52;;;;;;;5.13;4.03;;;15.00;44.00;;;;;;5093447;28;20478;-73
2021/12/17 11:09:44;;;;;;;7.00;4.80;;;15.10;43.00;;;;;;5093430;28;20447;-73
2021/12/17 11:12:30;;;;;;;4.43;3.60;;;15.30;44.30;;;;;;5093405;28;20485;-73
2021/12/17 11:15:10;;;;;;;5.23;3.60;;;15.40;42.00;;;;;;5093166;28;20423;-74
2021/12/17 11:17:38;;;;;;;5.27;4.10;;;15.40;40.90;;;;;;5093398;28;20485;-73
2021/12/17 11:20:08;;;;;;;5.47;4.97;;;15.50;43.30;;;;;;5093165;28;20522;-73
2021/12/17 11:22:36;;;;;;;5.07;4.23;;;15.60;42.80;;;;;;5093130;28;20519;-73
2021/12/17 11:25:04;;;;;;;5.67;4.20;;;15.70;42.60;;;;;;5092555;28;20914;-74
2021/12/17 11:27:34;;;;;;;7.80;4.17;;;15.90;41.70;;;;;;5093386;28;20519;-73
2021/12/17 11:30:02;;;;;;;7.10;4.93;;;16.10;41.00;;;;;;5093215;28;20514;-73
2021/12/17 11:32:29;;;;;;;4.80;4.30;;;16.30;41.90;;;;;;5093304;28;20446;-73
2021/12/17 11:34:58;;;;;;;5.77;4.03;;;16.40;41.80;;;;;;5092721;28;20503;-74
2021/12/17 11:37:26;;;;;;;7.60;5.13;;;16.50;41.30;;;;;;5092965;28;20440;-72
2021/12/17 11:39:57;;;;;;;5.67;4.50;;;16.60;40.90;;;;;;5093103;28;20839;-73
2021/12/17 11:42:35;;;;;;;6.17;4.60;;;16.80;41.50;;;;;;5093112;28;20440;-73
2021/12/17 11:45:25;;;;;;;8.07;4.23;;;16.90;39.30;;;;;;5093184;28;20475;-72
2021/12/17 11:47:57;;;;;;;5.73;3.60;;;16.90;40.50;;;;;;5092506;28;20896;-73
2021/12/17 11:50:24;;;;;;;6.80;3.73;;;17.00;39.40;;;;;;5092981;28;20919;-73
2021/12/17 11:52:53;;;;;;;6.20;3.77;;;17.10;38.50;;;;;;5092905;28;20510;-73
2021/12/17 11:55:26;;;;;;;5.57;3.77;;;17.00;39.70;;;;;;5092969;28;20435;-73
2021/12/17 11:57:56;;;;;;;5.63;4.47;;;17.10;39.90;;;;;;5093136;28;20509;-73
2021/12/17 12:00:29;;;;;;;5.30;4.40;;;16.90;38.70;;;;;;5092932;28;20465;-73
2021/12/17 12:03:14;;;;;;;5.90;4.10;;;16.80;38.20;;;;;;5092676;28;20923;-73
2021/12/17 12:08:34;;;;;;;3.97;3.20;;;16.60;39.40;;;;;;5066767;28;20518;-73
2021/12/17 12:11:07;;;;;;;5.13;4.63;;;16.50;38.40;;;;;;5091452;28;20443;-73
2021/12/17 12:13:36;;;;;;;5.20;4.07;;;16.20;39.00;;;;;;5092195;28;20440;-72
2021/12/17 12:16:06;;;;;;;5.07;4.00;;;16.00;39.90;;;;;;5090525;28;20516;-73
2021/12/17 12:18:44;;;;;;;5.23;3.60;;;15.90;39.30;;;;;;5091352;28;20471;-73
2021/12/17 12:21:21;;;;;;;3.93;3.00;;;15.70;39.30;;;;;;5091498;28;20917;-72
2021/12/17 12:23:51;;;;;;;5.00;3.53;;;15.60;40.10;;;;;;5079404;28;20846;-73
2021/12/17 12:26:24;;;;;;;4.40;3.77;;;15.60;40.10;;;;;;5091121;28;20455;-73
2021/12/17 12:29:10;;;;;;;7.43;2.93;;;15.60;40.50;;;;;;5090800;28;20493;-74
2021/12/17 12:31:59;;;;;;;5.93;3.03;;;15.50;41.00;;;;;;5090268;28;20490;-74
2021/12/17 12:34:36;;;;;;;4.23;3.33;;;15.50;40.40;;;;;;5091289;28;20470;-74
2021/12/17 12:37:20;;;;;;;6.53;4.03;;;15.20;39.90;;;;;;5092154;28;20536;-73
2021/12/17 12:40:16;;;;;;;8.70;6.40;;;15.00;41.10;;;;;;5089118;28;20921;-73
2021/12/17 12:42:56;;;;;;;4.23;3.83;;;14.50;42.20;;;;;;5092170;28;20459;-74
2021/12/17 12:45:25;;;;;;;5.10;3.87;;;14.10;43.20;;;;;;5092475;28;20544;-73
2021/12/17 12:47:58;;;;;;;4.00;3.23;;;13.90;43.90;;;;;;5092584;28;20518;-73
2021/12/17 12:50:28;;;;;;;4.60;3.70;;;13.90;44.40;;;;;;5091816;28;20443;-73
2021/12/17 12:52:58;;;;;;;4.23;3.43;;;13.80;44.70;;;;;;5092455;28;20518;-72
2021/12/17 12:55:28;;;;;;;3.77;3.33;;;13.50;44.70;;;;;;5092177;28;20913;-72
2021/12/17 12:58:03;;;;;;;4.37;3.80;;;13.20;45.90;;;;;;5092290;28;20988;-72
2021/12/17 13:00:32;;;;;;;4.33;3.47;;;13.10;46.30;;;;;;5094464;28;20439;-73
2021/12/17 13:03:05;;;;;;;4.50;3.43;;;13.10;46.40;;;;;;5095928;28;20930;-72
2021/12/17 13:05:33;;;;;;;4.00;3.40;;;12.90;47.10;;;;;;5094945;28;21002;-72
2021/12/17 13:08:02;;;;;;;5.27;3.37;;;12.80;47.30;;;;;;5095144;28;20864;-73
2021/12/17 13:10:31;;;;;;;4.10;3.70;;;12.80;47.80;;;;;;5095643;28;20492;-73
2021/12/17 13:13:04;;;;;;;4.20;3.47;;;12.70;48.00;;;;;;5095705;28;20478;-72
2021/12/17 13:15:44;;;;;;;3.87;3.47;;;12.70;48.40;;;;;;5095842;28;20436;-72
2021/12/17 13:21:16;;;;;;;3.63;3.27;;;12.50;48.80;;;;;;5095368;28;21041;-73
2021/12/17 13:23:49;;;;;;;5.00;3.97;;;12.10;49.50;;;;;;5095205;28;20442;-74
2021/12/17 13:26:17;;;;;;;4.20;3.23;;;12.00;50.00;;;;;;5095625;28;20443;-73
2021/12/17 13:28:53;;;;;;;5.23;2.90;;;12.00;50.50;;;;;;5095487;28;20497;-72
2021/12/17 13:31:38;;;;;;;5.07;3.87;;;12.00;50.70;;;;;;5095530;28;20443;-73
2021/12/17 13:34:09;;;;;;;5.60;3.57;;;12.10;50.70;;;;;;5094539;28;20518;-73
2021/12/17 13:36:39;;;;;;;5.10;3.40;;;12.10;51.00;;;;;;5095193;28;20427;-74
2021/12/17 13:39:06;;;;;;;5.10;3.87;;;12.10;51.00;;;;;;5095128;28;20416;-73
2021/12/17 13:41:40;;;;;;;7.00;4.33;;;11.90;51.30;;;;;;5095300;28;20845;-72
2021/12/17 13:44:24;;;;;;;5.33;3.90;;;11.80;51.80;;;;;;5095172;28;20558;-72
2021/12/17 13:46:51;;;;;;;6.00;4.43;;;11.80;52.00;;;;;;5095187;28;20432;-73
2021/12/17 13:49:22;;;;;;;5.17;3.77;;;11.70;52.20;;;;;;5094713;28;20435;-73
2021/12/17 13:51:49;;;;;;;4.53;3.70;;;11.70;52.80;;;;;;5095024;28;20518;-72
2021/12/17 13:54:16;;;;;;;5.85;4.78;;;11.60;53.00;;;;;;5094987;28;20244;-73
2021/12/17 13:56:44;;;;;;;4.95;3.75;;;11.30;53.30;;;;;;5094786;28;20189;-72
2021/12/17 13:59:10;;;;;;;6.93;4.80;;;11.20;54.20;;;;;;5094923;28;20195;-73
2021/12/17 14:01:38;;;;;;;5.55;3.90;;;11.20;54.40;;;;;;5094852;28;20845;-72
2021/12/17 14:04:14;;;;;;;7.13;5.25;;;11.20;54.20;;;;;;5094588;28;20258;-72
2021/12/17 14:06:51;;;;;;;6.25;4.68;;;11.20;54.40;;;;;;5094627;28;20220;-73
2021/12/17 14:09:20;;;;;;;6.60;4.53;;;11.20;54.50;;;;;;5094781;28;20193;-72
2021/12/17 14:11:47;;;;;;;7.78;5.93;;;11.10;54.50;;;;;;5094545;28;20190;-72
2021/12/17 14:14:25;;;;;;;7.60;6.63;;;11.00;55.30;;;;;;5094504;28;20603;-73
2021/12/17 14:16:58;;;;;;;11.13;7.90;;;11.00;55.60;;;;;;5094469;28;20197;-73
2021/12/17 14:19:39;;;;;;;9.90;7.70;;;10.90;56.00;;;;;;5094472;28;20228;-72
2021/12/17 14:22:27;;;;;;;10.13;8.00;;;10.70;56.60;;;;;;5094190;28;20193;-72
2021/12/17 14:24:55;;;;;;;10.68;8.70;;;10.70;57.40;;;;;;5094646;28;20302;-72
2021/12/17 14:27:22;;;;;;;11.05;9.05;;;10.60;57.70;;;;;;5094138;28;20727;-72
2021/12/17 14:30:02;;;;;;;10.30;8.48;;;10.60;57.80;;;;;;5094009;28;20299;-73
2021/12/17 14:32:29;;;;;;;11.68;8.10;;;10.50;58.30;;;;;;5094268;28;20716;-72
2021/12/17 14:34:56;;;;;;;9.50;8.48;;;10.40;58.40;;;;;;5093888;28;20316;-72
2021/12/17 14:37:25;;;;;;;13.70;10.02;;;10.20;58.50;;;;;;5094130;28;20259;-73
2021/12/17 14:39:55;;;;;;;12.25;9.55;;;10.10;58.80;;;;;;5093682;28;20747;-72
2021/12/17 14:42:35;;;;;;;10.65;8.60;;;10.00;59.40;;;;;;5093626;28;20232;-73
2021/12/17 14:45:06;;;;;;;11.45;9.05;;;9.80;61.50;;;;;;5093397;28;20217;-72
2021/12/17 14:47:46;;;;;;;12.23;9.30;;;9.70;62.10;;;;;;5093741;28;20238;-72
2021/12/17 15:01:36;;;;;;;9.05;8.13;;;9.00;66.30;;;;;;5093840;28;20277;-73
2021/12/17 15:04:04;;;;;;;13.57;9.73;;;8.90;66.80;;;;;;5093440;28;20220;-72
2021/12/17 15:06:31;;;;;;;17.77;9.65;;;8.80;67.40;;;;;;5093616;28;20194;-72
2021/12/17 15:09:01;;;;;;;11.65;9.95;;;8.70;68.40;;;;;;5093331;28;20604;-72
2021/12/17 15:11:36;;;;;;;12.85;9.40;;;8.60;68.80;;;;;;5093418;28;20192;-73
2021/12/17 15:14:04;;;;;;;14.02;9.30;;;8.60;69.50;;;;;;5093471;28;20188;-72
2021/12/17 15:16:31;;;;;;;13.18;9.52;;;8.50;69.80;;;;;;5093150;28;20292;-72
2021/12/17 15:18:59;;;;;;;12.52;10.40;;;8.50;70.30;;;;;;5093274;28;20232;-72
2021/12/17 15:21:26;;;;;;;12.70;9.27;;;8.40;70.70;;;;;;5092791;28;20559;-73
2021/12/17 15:23:53;;;;;;;17.27;10.07;;;8.40;71.10;;;;;;5093387;28;20280;-72
2021/12/17 15:26:21;;;;;;;14.02;9.80;;;8.40;71.70;;;;;;5093311;28;20308;-72
2021/12/17 15:28:48;;;;;;;15.13;9.70;;;8.30;71.80;;;;;;5092919;28;20735;-73
2021/12/17 15:31:15;;;;;;;10.52;9.07;;;8.30;72.00;;;;;;5088988;28;20292;-72
2021/12/17 15:33:42;;;;;;;16.10;9.95;;;8.30;72.20;;;;;;5103392;28;20285;-71
2021/12/17 15:36:09;;;;;;;13.82;9.35;;;8.20;72.60;;;;;;5111571;28;20320;-71
2021/12/17 15:38:36;;;;;;;13.77;10.48;;;8.20;72.80;;;;;;5111662;28;20249;-71